Time;durP1;ratioP1;P1;durP2;ratioP2;P2;SDS_P1;SDS_P2;PMS_P1;PMS_P2;Temp;Humidity;BMP_temperature;BMP_pressure;BME280_temperature;BME280_humidity;BME280_pressure;Samples;Min_cycle;Max_cycle;Signal;HPM_P1;HPM_P2
2021/01/17 00:00:02;;;;;;;24.40;11.33;;;2.70;99.90;;;;;;5099394;28;20208;-80
2021/01/17 00:02:28;;;;;;;20.83;10.97;;;2.80;99.90;;;;;;5096290;28;20598;-81
2021/01/17 00:04:55;;;;;;;20.83;11.17;;;2.70;99.90;;;;;;5097848;28;20224;-80
2021/01/17 00:07:28;;;;;;;21.33;11.43;;;2.70;99.90;;;;;;5096102;28;20228;-80
2021/01/17 00:09:54;;;;;;;23.23;11.43;;;2.70;99.90;;;;;;5096796;28;20286;-80
2021/01/17 00:12:21;;;;;;;20.63;11.57;;;2.70;99.90;;;;;;5096374;28;20282;-80
2021/01/17 00:14:47;;;;;;;25.30;12.27;;;2.70;99.90;;;;;;5097547;28;20664;-80
2021/01/17 00:17:13;;;;;;;26.90;13.07;;;2.70;99.90;;;;;;5099161;28;20200;-80
2021/01/17 00:19:39;;;;;;;21.87;12.03;;;2.70;99.90;;;;;;5096577;28;20632;-80
2021/01/17 00:22:07;;;;;;;27.13;12.30;;;2.70;99.90;;;;;;5096674;28;20256;-80
2021/01/17 00:24:33;;;;;;;25.97;12.37;;;2.70;99.90;;;;;;5095834;28;20256;-81
2021/01/17 00:26:59;;;;;;;21.93;12.20;;;2.70;99.90;;;;;;5095301;28;20656;-81
2021/01/17 00:29:26;;;;;;;25.03;13.20;;;2.70;99.90;;;;;;5097891;28;20206;-80
2021/01/17 00:31:52;;;;;;;26.23;13.27;;;2.70;99.90;;;;;;5098422;28;20733;-80
2021/01/17 00:34:19;;;;;;;26.27;12.73;;;2.60;99.90;;;;;;5097201;28;20196;-80
2021/01/17 00:36:45;;;;;;;21.17;12.53;;;2.60;99.90;;;;;;5096185;28;20204;-80
2021/01/17 00:39:12;;;;;;;25.73;13.07;;;2.60;99.90;;;;;;5097037;28;20225;-80
2021/01/17 00:41:39;;;;;;;26.53;13.07;;;2.60;99.90;;;;;;5095416;28;20203;-80
2021/01/17 00:44:06;;;;;;;25.70;12.87;;;2.70;99.90;;;;;;5096276;28;20225;-80
2021/01/17 00:46:39;;;;;;;26.53;13.67;;;2.80;99.90;;;;;;5096229;28;20648;-81
2021/01/17 00:49:06;;;;;;;25.00;13.07;;;2.90;99.90;;;;;;5096893;28;20214;-80
2021/01/17 00:51:41;;;;;;;28.00;13.97;;;2.80;99.90;;;;;;5095415;28;20252;-79
2021/01/17 00:54:08;;;;;;;26.47;12.93;;;2.80;99.90;;;;;;5095291;28;20630;-79
2021/01/17 00:56:35;;;;;;;24.57;12.60;;;2.90;99.90;;;;;;5094401;28;20211;-79
2021/01/17 00:59:02;;;;;;;29.03;13.13;;;2.90;99.90;;;;;;5095834;28;20656;-79
2021/01/17 01:01:29;;;;;;;23.70;12.50;;;2.90;99.90;;;;;;5096276;28;20200;-80
2021/01/17 01:03:56;;;;;;;32.47;13.43;;;2.90;99.90;;;;;;5094174;28;20220;-80
2021/01/17 01:06:22;;;;;;;30.53;13.07;;;3.00;99.90;;;;;;5093947;28;20256;-79
2021/01/17 01:08:48;;;;;;;23.57;12.13;;;2.90;99.90;;;;;;5094078;28;20206;-80
2021/01/17 01:11:19;;;;;;;23.23;12.37;;;2.90;99.90;;;;;;5093311;28;20199;-77
2021/01/17 01:13:46;;;;;;;25.70;12.60;;;2.90;99.90;;;;;;5095422;28;20221;-78
2021/01/17 01:16:13;;;;;;;23.97;12.67;;;3.00;99.90;;;;;;5095173;28;20253;-77
2021/01/17 01:18:39;;;;;;;26.73;12.53;;;3.00;99.90;;;;;;5096424;28;20208;-77
2021/01/17 01:21:06;;;;;;;24.67;11.87;;;3.00;99.90;;;;;;5094186;28;20595;-78
2021/01/17 01:23:32;;;;;;;23.60;11.97;;;3.00;99.90;;;;;;5094389;28;20261;-77
2021/01/17 01:25:59;;;;;;;24.50;11.80;;;3.10;99.90;;;;;;5093463;28;20195;-80
2021/01/17 01:28:26;;;;;;;20.80;11.10;;;3.20;99.90;;;;;;5092946;28;20201;-79
2021/01/17 01:30:54;;;;;;;24.90;12.10;;;3.20;99.90;;;;;;5097695;28;20226;-77
2021/01/17 01:33:21;;;;;;;22.50;11.87;;;3.20;99.90;;;;;;5094598;28;20204;-77
2021/01/17 01:35:47;;;;;;;27.07;11.77;;;3.10;99.90;;;;;;5096126;28;20208;-78
2021/01/17 01:38:14;;;;;;;22.73;11.37;;;3.10;99.90;;;;;;5093883;28;20200;-80
2021/01/17 01:40:40;;;;;;;26.07;11.67;;;3.10;99.90;;;;;;5094445;28;20578;-80
2021/01/17 01:43:06;;;;;;;25.37;11.73;;;3.10;99.90;;;;;;5092947;28;20206;-79
2021/01/17 01:45:33;;;;;;;23.73;11.60;;;3.10;99.90;;;;;;5093255;28;20204;-79
2021/01/17 01:48:02;;;;;;;21.23;11.83;;;3.10;99.90;;;;;;5096222;28;20212;-79
2021/01/17 01:50:28;;;;;;;32.37;12.30;;;3.10;99.90;;;;;;5092044;28;20296;-77
2021/01/17 01:52:55;;;;;;;23.93;11.30;;;3.10;99.90;;;;;;5091864;28;20675;-79
2021/01/17 01:55:21;;;;;;;23.53;12.03;;;3.20;99.90;;;;;;5091171;28;20651;-79
2021/01/17 01:57:49;;;;;;;27.63;11.60;;;3.20;99.90;;;;;;5092286;28;20215;-80
2021/01/17 02:00:17;;;;;;;24.33;12.30;;;3.20;99.90;;;;;;5092056;28;20209;-79
2021/01/17 02:02:44;;;;;;;23.73;11.70;;;3.20;99.90;;;;;;5091900;28;20208;-79
2021/01/17 02:05:12;;;;;;;24.07;11.63;;;3.10;99.90;;;;;;5091461;28;20582;-79
2021/01/17 02:08:07;;;;;;;21.77;10.80;;;3.20;99.90;;;;;;5091938;28;20671;-79
2021/01/17 02:10:35;;;;;;;23.43;10.87;;;3.20;99.90;;;;;;5092417;28;20610;-77
2021/01/17 02:13:11;;;;;;;22.97;10.60;;;3.20;99.90;;;;;;5091688;28;20230;-78
2021/01/17 02:15:39;;;;;;;22.87;10.67;;;3.20;99.90;;;;;;5092000;28;20204;-77
2021/01/17 02:18:06;;;;;;;20.40;10.47;;;3.20;99.90;;;;;;5092036;28;20203;-78
2021/01/17 02:20:35;;;;;;;26.87;11.63;;;3.20;99.90;;;;;;5100431;28;20209;-77
2021/01/17 02:23:08;;;;;;;34.43;13.40;;;3.10;99.90;;;;;;5092494;28;20214;-78
2021/01/17 02:25:38;;;;;;;25.80;12.10;;;3.20;99.90;;;;;;5092332;28;20203;-78
2021/01/17 02:28:07;;;;;;;28.37;12.53;;;3.20;99.90;;;;;;5092759;28;20337;-78
2021/01/17 02:30:37;;;;;;;33.67;12.73;;;3.20;99.90;;;;;;5092312;28;20252;-78
2021/01/17 02:33:11;;;;;;;32.97;13.37;;;3.20;99.90;;;;;;5092505;28;20200;-78
2021/01/17 02:35:39;;;;;;;30.33;12.63;;;3.30;99.90;;;;;;5092184;28;20725;-78
2021/01/17 02:38:15;;;;;;;30.13;13.10;;;3.30;99.90;;;;;;5092244;28;20249;-78
2021/01/17 02:40:55;;;;;;;26.07;12.77;;;3.30;99.90;;;;;;5092215;28;20546;-77
2021/01/17 02:43:23;;;;;;;30.43;13.80;;;3.40;99.90;;;;;;5092388;28;20212;-78
2021/01/17 02:45:49;;;;;;;31.57;13.47;;;3.40;99.90;;;;;;5092313;28;20278;-77
2021/01/17 02:48:15;;;;;;;25.90;12.10;;;3.50;99.90;;;;;;5092997;28;20290;-78
2021/01/17 02:50:42;;;;;;;31.27;14.00;;;3.50;99.90;;;;;;5092555;28;20210;-79
2021/01/17 02:53:18;;;;;;;37.80;14.07;;;3.50;99.90;;;;;;5092184;28;20209;-79
2021/01/17 02:55:45;;;;;;;32.80;13.60;;;3.60;99.90;;;;;;5092030;28;20203;-79
2021/01/17 02:58:15;;;;;;;36.67;13.70;;;3.60;99.90;;;;;;5092084;28;20211;-79
2021/01/17 03:00:43;;;;;;;38.20;15.77;;;3.60;99.90;;;;;;5092030;28;20214;-78
2021/01/17 03:03:13;;;;;;;52.83;15.93;;;3.70;99.90;;;;;;5092156;28;20214;-78
2021/01/17 03:05:40;;;;;;;46.13;15.67;;;3.80;99.90;;;;;;5092085;28;20210;-78
2021/01/17 03:08:08;;;;;;;44.07;15.97;;;3.80;99.90;;;;;;5095016;28;20211;-78
2021/01/17 03:10:34;;;;;;;45.17;16.23;;;3.80;99.90;;;;;;5095916;28;20257;-79
2021/01/17 03:13:02;;;;;;;45.70;16.73;;;3.80;99.90;;;;;;5095994;28;20207;-79
2021/01/17 03:15:33;;;;;;;46.10;16.53;;;3.70;99.90;;;;;;5095613;28;20203;-79
2021/01/17 03:17:59;;;;;;;63.37;17.07;;;3.80;99.90;;;;;;5095400;28;20208;-78
2021/01/17 03:20:26;;;;;;;53.80;17.77;;;3.90;99.90;;;;;;5095519;28;20624;-78
2021/01/17 03:22:52;;;;;;;51.83;17.80;;;3.90;99.90;;;;;;5095800;28;20264;-78
2021/01/17 03:25:18;;;;;;;75.27;18.30;;;3.90;99.90;;;;;;5095157;28;20223;-78
2021/01/17 03:27:45;;;;;;;70.97;19.03;;;3.90;99.90;;;;;;5095432;28;20211;-79
2021/01/17 03:30:13;;;;;;;72.37;19.23;;;4.00;99.90;;;;;;5095396;28;20235;-78
2021/01/17 03:32:40;;;;;;;72.17;19.63;;;4.10;99.90;;;;;;5095413;28;20208;-79
2021/01/17 03:35:08;;;;;;;71.97;19.30;;;4.00;99.90;;;;;;5095518;28;20536;-78
2021/01/17 03:37:34;;;;;;;90.43;20.20;;;4.00;99.90;;;;;;5094930;28;20656;-79
2021/01/17 03:40:00;;;;;;;81.20;19.37;;;4.10;99.90;;;;;;5095482;28;20203;-78
2021/01/17 03:42:27;;;;;;;89.03;19.73;;;4.10;99.90;;;;;;5095076;28;20621;-79
2021/01/17 03:44:53;;;;;;;63.20;19.73;;;4.20;99.90;;;;;;5094915;28;20323;-79
2021/01/17 03:47:19;;;;;;;83.90;21.53;;;4.30;99.90;;;;;;5094711;28;20660;-78
2021/01/17 03:49:46;;;;;;;70.47;21.13;;;4.40;99.90;;;;;;5094924;28;20201;-78
2021/01/17 03:52:13;;;;;;;78.73;21.70;;;4.40;99.90;;;;;;5094974;28;20548;-78
2021/01/17 03:54:39;;;;;;;84.03;21.47;;;4.40;99.90;;;;;;5094931;28;20264;-78
2021/01/17 03:57:05;;;;;;;66.23;20.70;;;4.50;99.90;;;;;;5094921;28;20603;-78
2021/01/17 03:59:32;;;;;;;77.77;21.63;;;4.50;99.90;;;;;;5094584;28;20203;-77
2021/01/17 04:01:58;;;;;;;66.00;20.10;;;4.60;99.90;;;;;;5094769;28;20568;-78
2021/01/17 04:04:25;;;;;;;76.27;21.40;;;4.70;99.90;;;;;;5094656;28;20229;-78
2021/01/17 04:06:52;;;;;;;75.13;22.27;;;4.70;99.90;;;;;;5094853;28;20571;-78
2021/01/17 04:09:18;;;;;;;72.63;22.10;;;4.70;99.90;;;;;;5094617;28;20206;-78
2021/01/17 04:11:47;;;;;;;67.23;20.47;;;4.80;99.90;;;;;;5094584;28;20211;-78
2021/01/17 04:14:13;;;;;;;65.00;20.60;;;4.90;99.90;;;;;;5094346;28;20203;-78
2021/01/17 04:16:40;;;;;;;71.37;21.13;;;4.90;99.90;;;;;;5094412;28;20616;-78
2021/01/17 04:19:06;;;;;;;55.67;18.77;;;4.80;99.90;;;;;;5093953;28;20213;-78
2021/01/17 04:21:35;;;;;;;54.00;18.87;;;4.80;99.90;;;;;;5094611;28;20230;-78
2021/01/17 04:24:02;;;;;;;51.40;17.43;;;4.80;99.90;;;;;;5094270;28;20691;-78
2021/01/17 04:26:29;;;;;;;55.23;16.57;;;4.80;99.90;;;;;;5094392;28;20221;-78
2021/01/17 04:28:55;;;;;;;47.47;16.87;;;4.90;99.90;;;;;;5094047;28;20204;-78
2021/01/17 04:31:21;;;;;;;36.27;15.30;;;5.00;99.90;;;;;;5094282;28;20716;-78
2021/01/17 04:33:48;;;;;;;37.40;14.33;;;5.10;99.90;;;;;;5094292;28;20241;-78
2021/01/17 04:36:15;;;;;;;40.33;15.17;;;5.10;99.90;;;;;;5094509;28;20230;-78
2021/01/17 04:38:41;;;;;;;35.23;13.90;;;5.20;99.90;;;;;;5093946;28;20204;-78
2021/01/17 04:41:14;;;;;;;42.87;13.90;;;5.20;99.90;;;;;;5094268;28;20203;-78
2021/01/17 04:43:49;;;;;;;28.67;12.27;;;5.10;99.90;;;;;;5093856;28;20612;-78
2021/01/17 04:46:16;;;;;;;36.73;12.67;;;5.10;99.90;;;;;;5094202;28;20195;-78
2021/01/17 04:48:47;;;;;;;35.20;12.27;;;5.20;99.90;;;;;;5093898;28;20207;-77
2021/01/17 04:51:14;;;;;;;32.33;10.70;;;5.20;99.90;;;;;;5093699;28;20199;-78
2021/01/17 04:53:41;;;;;;;32.60;9.80;;;5.20;99.90;;;;;;5093630;28;20215;-78
2021/01/17 04:56:21;;;;;;;28.80;9.80;;;5.20;99.90;;;;;;5093382;28;20664;-77
2021/01/17 04:59:12;;;;;;;29.53;9.13;;;5.20;99.90;;;;;;5093713;28;20215;-78
2021/01/17 05:01:50;;;;;;;27.67;9.53;;;5.30;99.90;;;;;;5093481;28;20206;-78
2021/01/17 05:04:33;;;;;;;27.30;8.67;;;5.30;99.90;;;;;;5093620;28;20637;-77
2021/01/17 05:06:59;;;;;;;26.13;8.00;;;5.30;99.90;;;;;;5093559;28;20744;-77
2021/01/17 05:09:31;;;;;;;25.87;8.30;;;5.30;99.90;;;;;;5093791;28;20205;-77
2021/01/17 05:12:12;;;;;;;21.63;7.73;;;5.30;99.90;;;;;;5093384;28;20204;-77
2021/01/17 05:14:42;;;;;;;28.80;7.73;;;5.30;99.90;;;;;;5093318;28;20204;-78
2021/01/17 05:17:09;;;;;;;23.53;7.87;;;5.30;99.90;;;;;;5093508;28;20200;-77
2021/01/17 05:19:37;;;;;;;21.67;7.40;;;5.30;99.90;;;;;;5093574;28;20204;-78
2021/01/17 05:22:05;;;;;;;31.65;9.30;;;5.30;99.90;;;;;;5092615;28;20935;-77
2021/01/17 05:24:31;;;;;;;35.20;8.53;;;5.40;99.90;;;;;;5093888;28;20228;-77
2021/01/17 05:27:00;;;;;;;29.60;7.23;;;5.40;99.90;;;;;;5093650;28;20651;-77
2021/01/17 05:29:28;;;;;;;26.20;7.70;;;5.40;99.90;;;;;;5093368;28;20233;-77
2021/01/17 05:31:56;;;;;;;28.77;7.57;;;5.50;99.90;;;;;;5093171;28;20242;-77
2021/01/17 05:34:23;;;;;;;28.87;7.50;;;5.60;99.90;;;;;;5093313;28;20230;-77
2021/01/17 05:37:02;;;;;;;28.40;7.73;;;5.60;99.90;;;;;;5094995;28;20238;-77
2021/01/17 05:39:29;;;;;;;24.67;7.70;;;5.70;99.90;;;;;;5093739;28;20203;-78
2021/01/17 05:42:05;;;;;;;25.83;7.50;;;5.80;99.90;;;;;;5094148;28;20205;-78
2021/01/17 05:44:32;;;;;;;27.80;8.20;;;5.90;99.90;;;;;;5093022;28;20226;-78
2021/01/17 05:47:04;;;;;;;23.00;7.83;;;5.90;99.90;;;;;;5093802;28;20606;-78
2021/01/17 05:49:30;;;;;;;28.57;8.30;;;5.80;99.90;;;;;;5093409;28;20200;-77
2021/01/17 05:52:10;;;;;;;31.00;8.87;;;5.80;99.90;;;;;;5093287;28;20202;-78
2021/01/17 05:54:38;;;;;;;31.13;7.33;;;5.80;99.90;;;;;;5093052;28;20194;-78
2021/01/17 05:57:14;;;;;;;27.70;7.73;;;5.80;99.90;;;;;;5093429;28;20249;-77
2021/01/17 05:59:41;;;;;;;33.70;7.77;;;5.70;99.90;;;;;;5092727;28;20567;-78
2021/01/17 06:02:15;;;;;;;34.03;8.37;;;5.80;99.90;;;;;;5092745;28;20204;-78
2021/01/17 06:04:43;;;;;;;33.70;7.97;;;5.80;99.90;;;;;;5092599;28;20221;-77
2021/01/17 06:07:11;;;;;;;27.37;6.47;;;5.70;99.90;;;;;;5092621;28;20261;-78
2021/01/17 06:09:39;;;;;;;26.27;6.30;;;5.70;99.90;;;;;;5092827;28;20611;-78
2021/01/17 06:12:07;;;;;;;25.93;6.60;;;5.70;99.90;;;;;;5092452;28;20204;-77
2021/01/17 06:14:33;;;;;;;26.30;6.43;;;5.80;99.90;;;;;;5092639;28;20204;-77
2021/01/17 06:17:02;;;;;;;16.67;5.07;;;5.70;99.90;;;;;;5092148;28;20359;-78
2021/01/17 06:19:33;;;;;;;27.70;5.43;;;5.60;99.90;;;;;;5092553;28;20257;-78
2021/01/17 06:22:01;;;;;;;21.77;5.23;;;5.70;99.90;;;;;;5092616;28;20196;-78
2021/01/17 06:24:38;;;;;;;17.23;4.80;;;5.70;99.90;;;;;;5092571;28;20229;-78
2021/01/17 06:27:06;;;;;;;17.57;4.60;;;5.80;99.90;;;;;;5092383;28;20699;-78
2021/01/17 06:29:40;;;;;;;28.23;4.63;;;5.80;99.90;;;;;;5092568;28;20200;-78
2021/01/17 06:32:15;;;;;;;22.77;5.13;;;5.90;99.90;;;;;;5092162;28;20236;-77
2021/01/17 06:34:47;;;;;;;21.47;4.70;;;5.80;99.90;;;;;;5092094;28;20246;-78
2021/01/17 06:37:15;;;;;;;30.97;5.47;;;5.70;99.90;;;;;;5092427;28;20290;-78
2021/01/17 06:39:48;;;;;;;27.73;5.73;;;5.70;99.90;;;;;;5092492;28;20571;-78
2021/01/17 06:42:15;;;;;;;30.70;5.13;;;5.60;99.90;;;;;;5094023;28;20221;-77
2021/01/17 06:44:42;;;;;;;31.47;5.30;;;5.70;99.90;;;;;;5095981;28;20599;-77
2021/01/17 06:47:21;;;;;;;30.43;5.43;;;5.70;99.90;;;;;;5096053;28;20200;-78
2021/01/17 06:49:48;;;;;;;22.13;5.03;;;5.70;99.90;;;;;;5096395;28;20212;-78
2021/01/17 06:52:16;;;;;;;25.37;5.73;;;5.70;99.90;;;;;;5095885;28;20233;-78
2021/01/17 06:54:44;;;;;;;27.73;6.53;;;5.70;99.90;;;;;;5096074;28;20305;-78
2021/01/17 06:57:11;;;;;;;25.20;6.00;;;5.80;99.90;;;;;;5096266;28;20226;-78
2021/01/17 06:59:39;;;;;;;26.17;6.30;;;5.80;99.90;;;;;;5095952;28;20227;-78
2021/01/17 07:02:36;;;;;;;23.30;5.97;;;5.90;99.90;;;;;;5096215;28;20256;-78
2021/01/17 07:05:45;;;;;;;25.50;6.33;;;5.90;99.90;;;;;;5095489;28;20223;-78
2021/01/17 07:08:49;;;;;;;23.97;6.83;;;5.80;99.90;;;;;;5095635;28;20282;-78
2021/01/17 07:11:48;;;;;;;23.23;6.70;;;5.80;99.90;;;;;;5095627;28;20211;-78
2021/01/17 07:14:17;;;;;;;27.77;7.27;;;5.70;99.90;;;;;;5095893;28;20207;-78
2021/01/17 07:16:47;;;;;;;26.53;6.87;;;5.70;99.90;;;;;;5095783;28;20206;-78
2021/01/17 07:19:20;;;;;;;30.00;7.20;;;5.60;99.90;;;;;;5095909;28;20197;-78
2021/01/17 07:21:49;;;;;;;32.00;8.13;;;5.60;99.90;;;;;;5095294;28;20653;-78
2021/01/17 07:24:19;;;;;;;26.73;7.33;;;5.60;99.90;;;;;;5095453;28;20693;-77
2021/01/17 07:27:02;;;;;;;32.80;7.47;;;5.70;99.90;;;;;;5095477;28;20214;-77
2021/01/17 07:29:28;;;;;;;27.10;6.70;;;5.70;99.90;;;;;;5095733;28;20206;-78
2021/01/17 07:31:56;;;;;;;29.03;6.93;;;5.70;99.90;;;;;;5095155;28;20211;-78
2021/01/17 07:34:23;;;;;;;29.40;6.87;;;5.60;99.90;;;;;;5095362;28;20201;-78
2021/01/17 07:36:50;;;;;;;20.47;6.20;;;5.40;99.90;;;;;;5095377;28;20208;-77
2021/01/17 07:39:23;;;;;;;37.53;7.00;;;5.40;99.90;;;;;;5095224;28;20196;-78
2021/01/17 07:41:50;;;;;;;26.13;6.00;;;5.40;99.90;;;;;;5095225;28;20260;-78
2021/01/17 07:44:19;;;;;;;32.17;6.30;;;5.40;99.90;;;;;;5094824;28;20243;-77
2021/01/17 07:46:46;;;;;;;27.30;6.77;;;5.50;99.90;;;;;;5095026;28;20201;-78
2021/01/17 07:49:13;;;;;;;31.63;6.63;;;5.50;99.90;;;;;;5094967;28;20201;-77
2021/01/17 07:51:42;;;;;;;25.33;6.43;;;5.60;99.90;;;;;;5105267;28;20204;-77
2021/01/17 07:54:20;;;;;;;25.40;6.27;;;5.60;99.90;;;;;;5097965;28;20576;-77
2021/01/17 07:56:47;;;;;;;32.37;6.57;;;5.70;99.90;;;;;;5102567;28;20219;-77
2021/01/17 07:59:23;;;;;;;25.47;5.80;;;5.70;99.90;;;;;;5103421;28;20265;-78
2021/01/17 08:01:49;;;;;;;22.97;5.93;;;5.80;99.90;;;;;;5095510;28;20689;-78
2021/01/17 08:04:26;;;;;;;24.97;6.67;;;5.70;99.90;;;;;;5096722;28;20227;-78
2021/01/17 08:06:57;;;;;;;33.23;6.70;;;5.70;99.90;;;;;;5110941;28;20654;-77
2021/01/17 08:09:47;;;;;;;35.30;6.57;;;5.70;99.90;;;;;;5101110;28;20200;-78
2021/01/17 08:12:33;;;;;;;37.87;6.03;;;5.80;99.90;;;;;;5094411;28;20229;-77
2021/01/17 08:15:13;;;;;;;23.77;6.03;;;5.80;99.90;;;;;;5102230;28;20228;-78
2021/01/17 08:17:40;;;;;;;29.37;5.90;;;5.90;99.90;;;;;;5107110;28;20199;-78
2021/01/17 08:20:08;;;;;;;27.90;6.30;;;5.90;99.90;;;;;;5105625;28;20199;-78
2021/01/17 08:22:42;;;;;;;28.47;5.70;;;5.80;99.90;;;;;;5104262;28;20666;-77
2021/01/17 08:25:09;;;;;;;28.03;7.03;;;5.90;99.90;;;;;;5105959;28;20485;-78
2021/01/17 08:27:36;;;;;;;32.97;7.30;;;5.90;99.90;;;;;;5102760;28;20237;-78
2021/01/17 08:30:25;;;;;;;34.90;6.23;;;5.90;99.90;;;;;;5107535;28;20647;-77
2021/01/17 08:32:52;;;;;;;22.87;5.77;;;5.90;99.90;;;;;;5104131;28;20203;-78
2021/01/17 08:35:35;;;;;;;31.80;5.83;;;6.10;99.90;;;;;;5107311;28;20673;-78
2021/01/17 08:38:14;;;;;;;22.00;5.83;;;6.00;99.90;;;;;;5113301;28;20327;-78
2021/01/17 08:40:54;;;;;;;31.63;5.93;;;6.10;99.90;;;;;;5109708;28;20586;-78
2021/01/17 08:43:31;;;;;;;33.97;5.50;;;6.10;99.90;;;;;;5107053;28;20219;-78
2021/01/17 08:45:58;;;;;;;29.90;5.73;;;6.10;99.90;;;;;;5105209;28;20219;-77
2021/01/17 08:48:31;;;;;;;30.27;5.23;;;6.10;99.90;;;;;;5102799;28;20207;-78
2021/01/17 08:51:18;;;;;;;26.83;5.53;;;6.10;99.90;;;;;;5106825;28;20196;-78
2021/01/17 08:53:46;;;;;;;29.90;5.60;;;6.10;99.90;;;;;;5096600;28;20252;-78
2021/01/17 08:56:20;;;;;;;33.67;5.97;;;6.10;99.90;;;;;;5103829;28;20736;-77
2021/01/17 08:58:53;;;;;;;26.83;4.80;;;6.10;99.90;;;;;;5109333;28;20294;-77
2021/01/17 09:01:21;;;;;;;20.43;4.67;;;6.20;99.90;;;;;;5103842;28;20279;-77
2021/01/17 09:03:58;;;;;;;30.93;5.20;;;6.30;99.90;;;;;;5110088;28;20310;-78
2021/01/17 09:06:34;;;;;;;22.33;5.10;;;6.30;99.90;;;;;;5094126;28;20290;-78
2021/01/17 09:09:07;;;;;;;17.93;4.63;;;6.30;99.90;;;;;;5113028;28;20528;-78
2021/01/17 09:11:38;;;;;;;31.23;5.47;;;6.30;99.90;;;;;;5098310;28;20231;-77
2021/01/17 09:14:25;;;;;;;33.60;5.50;;;6.20;99.90;;;;;;5098750;28;20234;-78
2021/01/17 09:16:54;;;;;;;26.97;4.87;;;6.20;99.90;;;;;;5105311;28;20543;-78
2021/01/17 09:19:23;;;;;;;28.70;4.67;;;6.20;99.90;;;;;;5103009;28;20196;-78
2021/01/17 09:21:54;;;;;;;28.80;5.60;;;6.20;99.90;;;;;;5106888;28;20342;-77
2021/01/17 09:24:23;;;;;;;34.10;7.50;;;6.30;99.90;;;;;;5097090;28;20221;-79
2021/01/17 09:26:51;;;;;;;31.67;9.70;;;6.30;99.90;;;;;;5105460;28;20632;-77
2021/01/17 09:29:32;;;;;;;40.63;9.57;;;6.30;99.90;;;;;;5109455;28;20215;-78
2021/01/17 09:32:01;;;;;;;29.67;6.00;;;6.30;99.90;;;;;;5108592;28;20247;-78
2021/01/17 09:34:30;;;;;;;22.17;6.43;;;6.40;99.90;;;;;;5105253;28;20200;-78
2021/01/17 09:36:59;;;;;;;20.63;5.50;;;6.50;99.90;;;;;;5101629;28;20244;-78
2021/01/17 09:39:48;;;;;;;30.07;5.63;;;6.50;99.90;;;;;;5102616;28;20201;-78
2021/01/17 09:42:16;;;;;;;27.20;5.73;;;6.50;99.90;;;;;;5103157;28;20204;-78
2021/01/17 09:44:51;;;;;;;31.47;5.07;;;6.40;99.90;;;;;;5106202;28;20223;-78
2021/01/17 09:47:19;;;;;;;26.27;4.40;;;6.50;99.90;;;;;;5105950;28;20191;-78
2021/01/17 09:49:47;;;;;;;27.30;4.70;;;6.60;99.90;;;;;;5101590;28;20215;-78
2021/01/17 09:52:14;;;;;;;20.20;5.23;;;6.50;99.90;;;;;;5108060;28;20260;-78
2021/01/17 09:54:41;;;;;;;32.03;5.60;;;6.60;99.90;;;;;;5108107;28;20562;-78
2021/01/17 09:57:18;;;;;;;28.90;5.93;;;6.60;99.90;;;;;;5110940;28;20204;-77
2021/01/17 09:59:45;;;;;;;22.90;5.30;;;6.70;99.90;;;;;;5101544;28;20214;-77
2021/01/17 10:02:12;;;;;;;23.27;5.30;;;6.70;99.90;;;;;;5102481;28;20201;-78
2021/01/17 10:04:40;;;;;;;29.57;5.83;;;6.80;99.90;;;;;;5101113;28;20245;-78
2021/01/17 10:07:13;;;;;;;23.80;5.50;;;6.80;99.90;;;;;;5097941;28;20273;-77
2021/01/17 10:09:39;;;;;;;24.40;5.30;;;6.90;99.90;;;;;;5096748;28;20257;-78
2021/01/17 10:12:07;;;;;;;28.00;5.23;;;6.90;99.90;;;;;;5107905;28;20643;-78
2021/01/17 10:14:34;;;;;;;20.93;5.70;;;7.00;99.90;;;;;;5103394;28;20199;-78
2021/01/17 10:17:05;;;;;;;24.07;6.87;;;7.10;99.90;;;;;;5107472;28;20204;-78
2021/01/17 10:19:32;;;;;;;24.77;5.87;;;7.30;99.90;;;;;;5104326;28;20200;-78
2021/01/17 10:22:00;;;;;;;24.53;5.80;;;7.30;99.90;;;;;;5110311;28;20212;-78
2021/01/17 10:24:28;;;;;;;22.47;5.13;;;7.40;99.90;;;;;;5101222;28;20677;-77
2021/01/17 10:26:56;;;;;;;23.87;5.30;;;7.50;99.90;;;;;;5104305;28;20206;-78
2021/01/17 10:29:24;;;;;;;22.63;5.23;;;7.50;99.90;;;;;;5112303;28;20207;-78
2021/01/17 10:32:06;;;;;;;23.00;5.93;;;7.60;99.90;;;;;;5106935;28;20211;-78
2021/01/17 10:34:35;;;;;;;19.20;4.60;;;7.60;99.90;;;;;;5102078;28;20279;-78
2021/01/17 10:37:04;;;;;;;20.67;5.00;;;7.70;99.90;;;;;;5111200;28;20296;-78
2021/01/17 10:39:32;;;;;;;25.80;4.87;;;7.90;99.90;;;;;;5110626;28;20230;-78
2021/01/17 10:42:13;;;;;;;18.30;5.10;;;7.80;99.90;;;;;;5111880;28;20211;-78
2021/01/17 10:44:55;;;;;;;19.40;4.80;;;7.60;99.90;;;;;;5102630;28;20806;-79
2021/01/17 10:47:44;;;;;;;22.63;5.27;;;7.60;99.90;;;;;;5105567;28;20202;-78
2021/01/17 10:50:12;;;;;;;23.20;5.00;;;7.70;99.90;;;;;;5104968;28;20202;-79
2021/01/17 10:52:41;;;;;;;20.50;4.80;;;7.70;99.90;;;;;;5100637;28;20205;-79
2021/01/17 10:55:13;;;;;;;16.40;4.77;;;7.70;99.90;;;;;;5107976;28;20275;-79
2021/01/17 10:57:41;;;;;;;21.97;4.40;;;7.80;99.90;;;;;;5108714;28;20208;-79
2021/01/17 11:00:09;;;;;;;27.30;4.60;;;7.80;99.90;;;;;;5100567;28;20212;-78
2021/01/17 11:02:36;;;;;;;20.03;4.77;;;7.80;99.90;;;;;;5111268;28;20568;-79
2021/01/17 11:05:06;;;;;;;21.53;4.87;;;7.90;99.90;;;;;;5095408;28;20680;-79
2021/01/17 11:07:32;;;;;;;20.73;4.93;;;7.80;99.90;;;;;;5094522;28;20199;-79
2021/01/17 11:09:59;;;;;;;20.47;4.60;;;7.70;99.90;;;;;;5106339;28;20215;-78
2021/01/17 11:12:36;;;;;;;28.77;5.07;;;7.70;99.90;;;;;;5094416;28;20567;-78
2021/01/17 11:15:14;;;;;;;28.83;5.13;;;7.80;99.90;;;;;;5095165;28;20200;-79
2021/01/17 11:17:43;;;;;;;25.23;4.77;;;7.70;99.90;;;;;;5095018;28;20214;-79
2021/01/17 11:20:10;;;;;;;28.80;5.67;;;7.80;99.90;;;;;;5092980;28;20208;-79
2021/01/17 11:22:36;;;;;;;25.97;6.00;;;7.60;99.90;;;;;;5096556;28;20211;-79
2021/01/17 11:25:04;;;;;;;24.80;5.93;;;7.60;99.90;;;;;;5093859;28;20216;-78
2021/01/17 11:27:35;;;;;;;21.57;5.10;;;7.60;99.90;;;;;;5092638;28;20635;-78
2021/01/17 11:30:03;;;;;;;21.03;4.73;;;7.70;99.90;;;;;;5098822;28;20285;-79
2021/01/17 11:32:31;;;;;;;20.40;4.80;;;7.80;99.90;;;;;;5094238;28;20564;-79
2021/01/17 11:34:58;;;;;;;22.13;4.90;;;7.90;99.90;;;;;;5097591;28;20288;-78
2021/01/17 11:37:33;;;;;;;21.93;4.63;;;7.90;99.90;;;;;;5099339;28;20204;-79
2021/01/17 11:40:05;;;;;;;27.00;5.93;;;7.70;99.90;;;;;;5098012;28;20299;-80
2021/01/17 11:42:31;;;;;;;19.73;4.83;;;7.50;99.90;;;;;;5096472;28;20206;-78
2021/01/17 11:45:00;;;;;;;24.40;5.40;;;7.40;99.90;;;;;;5096919;28;20230;-79
2021/01/17 11:47:26;;;;;;;24.37;5.33;;;7.30;99.90;;;;;;5096263;28;20196;-79
2021/01/17 11:49:53;;;;;;;14.20;4.60;;;7.30;99.90;;;;;;5098884;28;20203;-79
2021/01/17 11:52:20;;;;;;;21.43;4.93;;;7.40;99.90;;;;;;5101016;28;20629;-79
2021/01/17 11:54:46;;;;;;;25.80;5.63;;;7.50;99.90;;;;;;5099019;28;20274;-79
2021/01/17 11:57:14;;;;;;;26.40;5.10;;;7.40;99.90;;;;;;5096137;28;20200;-79
2021/01/17 11:59:41;;;;;;;21.17;4.50;;;7.30;99.90;;;;;;5096816;28;20204;-79
2021/01/17 12:02:18;;;;;;;23.17;5.00;;;7.30;99.90;;;;;;5094963;28;20201;-79
2021/01/17 12:04:45;;;;;;;21.07;5.43;;;7.40;99.90;;;;;;5097509;28;20582;-79
2021/01/17 12:07:12;;;;;;;20.73;4.90;;;7.40;99.90;;;;;;5096906;28;20205;-79
2021/01/17 12:09:39;;;;;;;16.80;3.73;;;7.50;99.90;;;;;;5096826;28;20309;-79
2021/01/17 12:12:13;;;;;;;15.10;4.17;;;7.40;99.90;;;;;;5095400;28;20204;-79
2021/01/17 12:14:40;;;;;;;16.80;3.93;;;7.40;99.90;;;;;;5105482;28;20207;-79
2021/01/17 12:17:07;;;;;;;17.67;3.80;;;7.40;99.90;;;;;;5108621;28;20213;-78
2021/01/17 12:19:36;;;;;;;15.47;3.50;;;7.40;99.90;;;;;;5107293;28;20571;-79
2021/01/17 12:22:03;;;;;;;20.47;4.27;;;7.40;99.90;;;;;;5100446;28;20284;-78
2021/01/17 12:24:29;;;;;;;15.27;3.40;;;7.40;99.90;;;;;;5095956;28;20228;-77
2021/01/17 12:26:57;;;;;;;16.60;3.77;;;7.40;99.90;;;;;;5098393;28;20202;-78
2021/01/17 12:29:24;;;;;;;14.07;3.80;;;7.40;99.90;;;;;;5102489;28;20294;-78
2021/01/17 12:31:52;;;;;;;12.97;4.47;;;7.40;99.90;;;;;;5096640;28;20228;-78
2021/01/17 12:34:18;;;;;;;18.80;3.60;;;7.30;99.90;;;;;;5104543;28;20657;-78
2021/01/17 12:36:46;;;;;;;11.77;2.83;;;7.30;99.90;;;;;;5087293;28;20208;-78
2021/01/17 12:39:17;;;;;;;19.13;3.27;;;7.40;99.90;;;;;;5096252;28;20204;-77
2021/01/17 12:41:46;;;;;;;12.97;2.97;;;7.30;99.90;;;;;;5104734;28;20200;-78
2021/01/17 12:44:14;;;;;;;14.93;2.70;;;7.30;99.90;;;;;;5101569;28;20697;-78
2021/01/17 12:46:41;;;;;;;17.70;3.30;;;7.30;99.90;;;;;;5107400;28;20719;-78
2021/01/17 12:49:07;;;;;;;13.70;2.43;;;7.30;99.90;;;;;;5107599;28;20305;-78
2021/01/17 12:51:34;;;;;;;14.37;2.80;;;7.40;99.90;;;;;;5112329;28;20203;-78
2021/01/17 12:54:01;;;;;;;15.53;3.13;;;7.40;99.90;;;;;;5110309;28;20724;-78
2021/01/17 12:56:28;;;;;;;9.90;2.80;;;7.40;99.90;;;;;;5112324;28;20725;-77